createdAt,value
2022-08-25T00:02:03.134Z,30.55
2022-08-25T00:04:31.525Z,32.22
2022-08-25T00:07:03.120Z,28.60
2022-08-25T00:11:59.080Z,35.35
2022-08-25T00:14:34.388Z,31.70
2022-08-25T00:17:02.064Z,50.85
2022-08-25T00:19:33.408Z,55.38
2022-08-25T00:22:01.548Z,48.35
2022-08-25T00:24:28.708Z,47.58
2022-08-25T00:26:57.505Z,46.05
2022-08-25T00:29:26.488Z,40.43
2022-08-25T00:31:54.009Z,30.85
2022-08-25T00:34:26.401Z,33.80
2022-08-25T00:36:53.934Z,34.63
2022-08-25T00:39:23.160Z,46.70
2022-08-25T00:41:52.171Z,46.47
2022-08-25T00:44:19.381Z,42.13
2022-08-25T00:46:52.607Z,36.63
2022-08-25T00:49:24.820Z,38.47
2022-08-25T00:51:59.191Z,31.50
2022-08-25T00:54:31.516Z,35.65
2022-08-25T00:57:00.803Z,57.10
2022-08-25T00:59:28.295Z,62.90
2022-08-25T01:01:56.302Z,73.03
2022-08-25T01:04:24.047Z,47.10
2022-08-25T01:06:51.297Z,36.42
2022-08-25T01:09:20.013Z,40.90
2022-08-25T01:11:47.620Z,50.97
2022-08-25T01:14:18.884Z,58.50
2022-08-25T01:16:46.433Z,66.32
2022-08-25T01:19:17.836Z,67.07
2022-08-25T01:21:53.009Z,65.93
2022-08-25T01:24:31.491Z,72.38
2022-08-25T01:26:58.779Z,72.18
2022-08-25T01:29:25.765Z,73.55
2022-08-25T01:32:00.270Z,69.47
2022-08-25T01:34:29.904Z,71.65
2022-08-25T01:36:59.092Z,67.25
2022-08-25T01:39:27.640Z,53.65
2022-08-25T01:42:06.187Z,47.13
2022-08-25T01:44:35.962Z,37.85
2022-08-25T01:49:30.873Z,38.22
2022-08-25T01:52:05.493Z,62.35
2022-08-25T01:54:32.606Z,45.55
2022-08-25T01:56:59.608Z,37.95
2022-08-25T01:59:27.484Z,34.05
2022-08-25T02:01:57.465Z,40.33
2022-08-25T02:04:29.566Z,33.10
2022-08-25T02:06:56.352Z,56.00
2022-08-25T02:09:23.273Z,41.53
2022-08-25T02:11:50.956Z,41.05
2022-08-25T02:14:19.957Z,40.78
2022-08-25T02:16:50.977Z,44.72
2022-08-25T02:19:19.444Z,41.58
2022-08-25T02:21:46.856Z,43.40
2022-08-25T02:24:14.198Z,41.00
2022-08-25T02:26:41.420Z,51.05
2022-08-25T02:29:08.921Z,63.63
2022-08-25T02:31:36.540Z,62.28
2022-08-25T02:34:03.909Z,66.07
2022-08-25T02:36:32.220Z,65.60
2022-08-25T02:38:59.503Z,59.03
2022-08-25T02:41:30.909Z,58.95
2022-08-25T02:43:58.133Z,42.35
2022-08-25T02:46:25.183Z,47.30
2022-08-25T02:48:53.415Z,53.20
2022-08-25T02:51:22.570Z,56.47
2022-08-25T02:53:50.008Z,55.40
2022-08-25T02:56:18.749Z,59.78
2022-08-25T02:58:46.425Z,59.15
2022-08-25T03:01:13.871Z,50.67
2022-08-25T03:03:42.189Z,54.65
2022-08-25T03:08:39.779Z,47.22
2022-08-25T03:11:06.981Z,42.22
2022-08-25T03:13:34.320Z,57.78
2022-08-25T03:16:03.006Z,52.58
2022-08-25T03:18:30.525Z,66.72
2022-08-25T03:20:57.805Z,51.83
2022-08-25T03:23:24.811Z,40.42
2022-08-25T03:26:12.469Z,38.95
2022-08-25T03:28:39.204Z,43.25
2022-08-25T03:31:06.266Z,43.40
2022-08-25T03:33:33.419Z,40.40
2022-08-25T03:36:00.426Z,41.17
2022-08-25T03:38:28.008Z,39.55
2022-08-25T03:40:54.801Z,34.88
2022-08-25T03:43:22.421Z,38.72
2022-08-25T03:45:49.297Z,37.50
2022-08-25T03:48:17.793Z,42.03
2022-08-25T03:50:50.610Z,42.53
2022-08-25T03:53:19.814Z,39.22
2022-08-25T03:55:46.914Z,38.70
2022-08-25T03:58:14.248Z,44.00
2022-08-25T04:00:41.004Z,49.25
2022-08-25T04:03:07.815Z,44.53
2022-08-25T04:05:35.425Z,50.35
2022-08-25T04:08:02.355Z,58.20
2022-08-25T04:10:29.900Z,52.30
2022-08-25T04:12:58.419Z,71.13
2022-08-25T04:15:30.138Z,75.10
2022-08-25T04:17:59.001Z,44.35
2022-08-25T04:20:25.942Z,41.63
2022-08-25T04:22:52.795Z,51.85
2022-08-25T04:25:19.716Z,46.38
2022-08-25T04:27:46.471Z,43.85
2022-08-25T04:30:13.808Z,48.70
2022-08-25T04:32:40.631Z,56.03
2022-08-25T04:35:07.803Z,39.92
2022-08-25T04:37:34.928Z,61.28
2022-08-25T04:40:02.198Z,36.97
2022-08-25T04:42:29.008Z,39.60
2022-08-25T04:47:46.237Z,37.05
2022-08-25T04:50:13.071Z,41.72
2022-08-25T04:52:39.845Z,43.15
2022-08-25T04:55:07.504Z,48.53
2022-08-25T04:57:34.505Z,42.78
2022-08-25T05:00:02.357Z,52.72
2022-08-25T05:02:29.157Z,53.80
2022-08-25T05:04:57.282Z,52.15
2022-08-25T05:07:24.108Z,61.53
2022-08-25T05:09:53.240Z,54.65
2022-08-25T05:12:20.855Z,55.70
2022-08-25T05:14:48.512Z,55.72
2022-08-25T05:17:18.021Z,55.72
2022-08-25T05:19:44.919Z,62.45
2022-08-25T05:22:11.755Z,52.75
2022-08-25T05:24:38.625Z,53.42
2022-08-25T05:27:05.591Z,48.25
2022-08-25T05:29:32.371Z,48.80
2022-08-25T05:31:59.346Z,45.17
2022-08-25T05:34:26.152Z,48.03
2022-08-25T05:36:53.094Z,43.88
2022-08-25T05:39:20.029Z,51.60
2022-08-25T05:41:46.853Z,41.70
2022-08-25T05:44:15.948Z,44.47
2022-08-25T05:46:44.932Z,36.55
2022-08-25T05:49:11.737Z,38.17
2022-08-25T05:51:38.580Z,33.35
2022-08-25T05:54:05.900Z,29.00
2022-08-25T05:56:32.639Z,30.70
2022-08-25T05:59:00.551Z,30.98
2022-08-25T06:01:48.017Z,29.90
2022-08-25T06:04:17.947Z,26.52
2022-08-25T06:06:44.765Z,26.00
2022-08-25T06:09:15.380Z,24.35
2022-08-25T06:11:42.993Z,26.33
2022-08-25T06:14:10.695Z,21.95
2022-08-25T06:16:39.220Z,25.38
2022-08-25T06:19:07.535Z,20.37
2022-08-25T06:21:34.272Z,21.58
2022-08-25T06:24:01.826Z,23.73
2022-08-25T06:26:28.581Z,25.52
2022-08-25T06:28:55.401Z,20.58
2022-08-25T06:31:22.696Z,22.63
2022-08-25T06:33:50.721Z,22.15
2022-08-25T06:36:17.827Z,20.90
2022-08-25T06:38:44.881Z,17.23
2022-08-25T06:41:12.785Z,20.52
2022-08-25T06:43:47.421Z,18.33
2022-08-25T06:46:19.634Z,16.65
2022-08-25T06:48:46.453Z,14.98
2022-08-25T06:51:15.571Z,17.52
2022-08-25T06:53:44.086Z,15.68
2022-08-25T06:56:11.872Z,16.33
2022-08-25T06:58:39.340Z,15.80
2022-08-25T07:01:15.881Z,14.50
2022-08-25T07:03:47.545Z,14.13
2022-08-25T07:06:18.310Z,25.70
2022-08-25T07:08:46.552Z,15.68
2022-08-25T07:11:16.187Z,15.15
2022-08-25T07:13:44.242Z,16.10
2022-08-25T07:16:15.595Z,17.98
2022-08-25T07:18:44.161Z,13.82
2022-08-25T07:21:12.450Z,12.25
2022-08-25T07:23:40.930Z,13.90
2022-08-25T07:26:27.090Z,12.43
2022-08-25T07:28:58.897Z,15.50
2022-08-25T07:31:27.118Z,14.13
2022-08-25T07:34:15.056Z,12.98
2022-08-25T07:36:43.687Z,12.88
2022-08-25T07:39:10.642Z,12.43
2022-08-25T07:41:39.989Z,17.10
2022-08-25T07:44:08.605Z,14.27
2022-08-25T07:46:35.423Z,12.45
2022-08-25T07:49:02.345Z,14.82
2022-08-25T07:51:29.166Z,11.60
2022-08-25T07:53:56.054Z,12.00
2022-08-25T07:56:23.638Z,15.18
2022-08-25T07:58:50.748Z,9.48
2022-08-25T08:01:19.886Z,11.95
2022-08-25T08:03:50.850Z,16.55
2022-08-25T08:06:21.630Z,12.95
2022-08-25T08:08:50.424Z,13.10
2022-08-25T08:11:23.965Z,14.95
2022-08-25T08:13:51.935Z,10.95
2022-08-25T08:16:20.452Z,21.02
2022-08-25T08:18:48.166Z,11.60
2022-08-25T08:21:22.651Z,11.68
2022-08-25T08:23:50.584Z,10.57
2022-08-25T08:26:18.202Z,9.95
2022-08-25T08:28:51.891Z,11.57
2022-08-25T08:31:24.744Z,13.32
2022-08-25T08:33:55.017Z,17.25
2022-08-25T08:36:25.473Z,10.48
2022-08-25T08:38:52.949Z,10.63
2022-08-25T08:45:11.512Z,8.32
2022-08-25T08:47:52.987Z,9.27
2022-08-25T08:50:50.759Z,10.40
2022-08-25T08:53:27.617Z,13.20
2022-08-25T08:56:06.941Z,10.30
2022-08-25T08:59:06.101Z,11.98
2022-08-25T09:01:54.106Z,11.98
2022-08-25T09:04:37.629Z,10.82
2022-08-25T09:07:11.739Z,12.07
2022-08-25T09:09:42.159Z,13.07
2022-08-25T09:12:41.365Z,11.52
2022-08-25T09:16:00.057Z,12.00
2022-08-25T09:18:51.189Z,10.18
2022-08-25T09:21:36.032Z,10.45
2022-08-25T09:24:30.702Z,9.40
2022-08-25T09:27:15.068Z,14.73
2022-08-25T09:30:01.771Z,15.85
2022-08-25T09:32:36.117Z,12.35
2022-08-25T09:35:04.912Z,14.27
2022-08-25T09:37:31.713Z,9.90
2022-08-25T09:39:59.242Z,11.68
2022-08-25T09:42:48.203Z,8.85
2022-08-25T09:45:17.387Z,12.77
2022-08-25T09:47:46.058Z,12.45
2022-08-25T09:50:20.201Z,13.73
2022-08-25T09:52:46.985Z,12.60
2022-08-25T09:55:29.607Z,10.75
2022-08-25T09:57:59.631Z,11.00
2022-08-25T10:00:30.621Z,9.93
2022-08-25T10:03:22.852Z,16.02
2022-08-25T10:06:04.256Z,12.50
2022-08-25T10:08:55.651Z,7.45
2022-08-25T10:11:33.405Z,9.23
2022-08-25T10:14:26.396Z,13.23
2022-08-25T10:16:54.625Z,12.88
2022-08-25T10:19:30.535Z,13.05
2022-08-25T10:22:07.916Z,10.30
2022-08-25T10:24:35.226Z,11.35
2022-08-25T10:27:17.369Z,11.02
2022-08-25T10:30:14.968Z,11.23
2022-08-25T10:33:15.611Z,8.13
2022-08-25T10:36:06.700Z,12.65
2022-08-25T10:41:44.612Z,13.90
2022-08-25T10:44:39.028Z,13.97
2022-08-25T10:47:29.938Z,12.95
2022-08-25T10:50:05.429Z,10.90
2022-08-25T10:53:05.295Z,15.35
2022-08-25T10:55:47.322Z,13.85
2022-08-25T10:58:35.392Z,10.32
2022-08-25T11:01:19.223Z,9.43
2022-08-25T11:04:07.496Z,10.48
2022-08-25T11:06:56.651Z,10.82
2022-08-25T11:09:33.306Z,13.30
2022-08-25T11:12:10.021Z,14.52
2022-08-25T11:14:43.050Z,13.85
2022-08-25T11:17:29.583Z,11.77
2022-08-25T11:20:03.587Z,17.63
2022-08-25T11:22:40.621Z,10.40
2022-08-25T11:25:12.828Z,11.70
2022-08-25T11:28:20.671Z,17.30
2022-08-25T11:30:51.284Z,14.57
2022-08-25T11:33:19.718Z,11.20
2022-08-25T11:35:57.098Z,24.65
2022-08-25T11:38:36.091Z,13.52
2022-08-25T11:41:11.425Z,9.57
2022-08-25T11:43:55.056Z,16.98
2022-08-25T11:46:40.164Z,11.48
2022-08-25T11:49:27.680Z,15.00
2022-08-25T11:54:35.668Z,14.40
2022-08-25T11:57:06.558Z,18.70
2022-08-25T11:59:54.330Z,13.15
2022-08-25T12:02:39.148Z,8.73
2022-08-25T12:05:11.250Z,21.48
2022-08-25T12:08:24.275Z,12.55
2022-08-25T12:10:55.337Z,17.83
2022-08-25T12:13:38.616Z,22.38
2022-08-25T12:16:05.976Z,18.40
2022-08-25T12:18:32.696Z,13.57
2022-08-25T12:21:00.174Z,19.08
2022-08-25T12:23:50.407Z,18.15
2022-08-25T12:26:31.827Z,15.93
2022-08-25T12:29:26.616Z,18.45
2022-08-25T12:32:03.174Z,19.45
2022-08-25T12:34:40.887Z,17.60
2022-08-25T12:37:25.317Z,13.75
2022-08-25T12:39:54.535Z,62.67
2022-08-25T12:42:45.060Z,14.93
2022-08-25T12:45:24.143Z,11.57
2022-08-25T12:47:53.092Z,25.38
2022-08-25T12:50:50.395Z,13.27
2022-08-25T12:53:34.102Z,11.02
2022-08-25T12:56:06.182Z,16.67
2022-08-25T12:58:59.869Z,15.30
2022-08-25T13:01:55.872Z,25.02
2022-08-25T13:04:46.313Z,14.75
2022-08-25T13:07:34.795Z,20.25
2022-08-25T13:10:24.312Z,22.40
2022-08-25T13:13:16.912Z,14.50
2022-08-25T13:15:57.921Z,19.27
2022-08-25T13:18:31.591Z,15.65
2022-08-25T13:21:27.738Z,15.15
2022-08-25T13:26:48.962Z,23.10
2022-08-25T13:29:37.413Z,17.52
2022-08-25T13:32:14.383Z,18.95
2022-08-25T13:34:43.689Z,15.75
2022-08-25T13:40:32.736Z,17.17
2022-08-25T13:43:07.974Z,15.95
2022-08-25T13:45:42.983Z,14.88
2022-08-25T13:48:21.147Z,16.38
2022-08-25T13:50:52.085Z,16.15
2022-08-25T13:53:26.346Z,23.40
2022-08-25T13:55:58.084Z,18.30
2022-08-25T13:58:38.709Z,13.82
2022-08-25T14:01:46.929Z,15.88
2022-08-25T14:04:51.464Z,18.27
2022-08-25T14:07:22.739Z,17.10
2022-08-25T14:09:54.346Z,21.45
2022-08-25T14:12:31.339Z,14.27
2022-08-25T14:15:03.636Z,17.88
2022-08-25T14:17:38.343Z,12.63
2022-08-25T14:20:28.974Z,16.00
2022-08-25T14:22:59.288Z,25.30
2022-08-25T14:25:28.493Z,20.23
2022-08-25T14:28:08.240Z,15.60
2022-08-25T14:30:39.589Z,25.13
2022-08-25T14:33:10.849Z,13.90
2022-08-25T14:35:38.166Z,25.27
2022-08-25T14:38:12.447Z,26.15
2022-08-25T14:40:39.864Z,22.75
2022-08-25T14:43:09.613Z,12.07
2022-08-25T14:45:40.108Z,18.20
2022-08-25T14:48:14.457Z,20.00
2022-08-25T14:50:42.262Z,19.15
2022-08-25T14:53:11.691Z,21.25
2022-08-25T14:55:39.829Z,16.48
2022-08-25T14:58:09.637Z,12.77
2022-08-25T15:00:44.607Z,17.88
2022-08-25T15:03:21.719Z,14.77
2022-08-25T15:05:48.460Z,20.77
2022-08-25T15:08:35.543Z,18.23
2022-08-25T15:11:02.275Z,16.98
2022-08-25T15:13:36.740Z,22.63
2022-08-25T15:16:04.483Z,16.95
2022-08-25T15:18:31.316Z,21.73
2022-08-25T15:20:58.328Z,14.43
2022-08-25T15:23:25.139Z,17.40
2022-08-25T15:25:56.036Z,14.35
2022-08-25T15:28:22.926Z,14.65
2022-08-25T15:30:50.787Z,12.30
2022-08-25T15:33:18.007Z,14.63
2022-08-25T15:35:45.637Z,19.85
2022-08-25T15:38:12.629Z,12.00
2022-08-25T15:40:39.535Z,10.88
2022-08-25T15:43:07.034Z,19.05
2022-08-25T15:45:36.208Z,18.63
2022-08-25T15:50:30.448Z,13.95
2022-08-25T15:52:57.920Z,21.33
2022-08-25T15:55:24.917Z,17.70
2022-08-25T15:57:51.957Z,15.95
2022-08-25T16:00:19.245Z,14.57
2022-08-25T16:02:48.466Z,19.75
2022-08-25T16:05:16.200Z,13.63
2022-08-25T16:07:51.530Z,20.23
2022-08-25T16:10:18.858Z,17.92
2022-08-25T16:12:46.152Z,18.70
2022-08-25T16:15:13.184Z,14.65
2022-08-25T16:17:40.510Z,16.35
2022-08-25T16:20:08.264Z,17.48
2022-08-25T16:22:40.432Z,19.27
2022-08-25T16:25:07.767Z,15.82
2022-08-25T16:27:38.937Z,20.13
2022-08-25T16:30:08.004Z,15.40
2022-08-25T16:32:35.088Z,21.48
2022-08-25T16:35:04.215Z,21.35
2022-08-25T16:37:33.826Z,28.17
2022-08-25T16:40:01.481Z,12.48
2022-08-25T16:42:28.936Z,18.73
2022-08-25T16:44:55.759Z,19.67
2022-08-25T16:47:26.870Z,11.23
2022-08-25T16:49:54.329Z,28.63
2022-08-25T16:52:40.674Z,13.52
2022-08-25T16:55:13.802Z,13.27
2022-08-25T16:57:45.361Z,14.65
2022-08-25T17:00:18.702Z,21.08
2022-08-25T17:02:46.086Z,14.00
2022-08-25T17:05:14.515Z,17.13
2022-08-25T17:07:41.790Z,14.82
2022-08-25T17:10:12.894Z,15.73
2022-08-25T17:12:40.417Z,23.40
2022-08-25T17:15:07.696Z,23.27
2022-08-25T17:17:37.251Z,26.73
2022-08-25T17:20:05.003Z,18.27
2022-08-25T17:22:31.884Z,20.67
2022-08-25T17:25:00.697Z,14.77
2022-08-25T17:27:28.388Z,11.10
2022-08-25T17:29:55.950Z,18.02
2022-08-25T17:32:30.174Z,21.25
2022-08-25T17:34:58.116Z,17.35
2022-08-25T17:37:25.319Z,18.27
2022-08-25T17:40:02.579Z,20.30
2022-08-25T17:42:30.137Z,15.27
2022-08-25T17:44:57.562Z,21.48
2022-08-25T17:47:24.269Z,14.98
2022-08-25T17:49:51.020Z,21.10
2022-08-25T17:52:17.868Z,20.27
2022-08-25T17:54:48.671Z,18.40
2022-08-25T17:57:16.239Z,17.05
2022-08-25T17:59:43.045Z,13.82
2022-08-25T18:02:10.095Z,19.73
2022-08-25T18:04:38.098Z,14.70
2022-08-25T18:07:05.496Z,13.90
2022-08-25T18:09:32.301Z,22.58
2022-08-25T18:11:59.209Z,14.93
2022-08-25T18:14:25.980Z,18.70
2022-08-25T18:16:53.805Z,14.50
2022-08-25T18:19:21.142Z,16.40
2022-08-25T18:21:48.249Z,21.30
2022-08-25T18:24:14.986Z,12.27
2022-08-25T18:26:42.394Z,16.13
2022-08-25T18:29:12.922Z,11.93
2022-08-25T18:31:42.333Z,16.85
2022-08-25T18:34:11.348Z,17.60
2022-08-25T18:36:38.814Z,20.38
2022-08-25T18:39:25.871Z,18.00
2022-08-25T18:41:52.608Z,16.63
2022-08-25T18:44:19.923Z,14.63
2022-08-25T18:46:47.032Z,13.65
2022-08-25T18:49:18.428Z,16.60
2022-08-25T18:51:48.109Z,15.75
2022-08-25T18:54:22.692Z,22.27
2022-08-25T18:56:50.461Z,18.70
2022-08-25T18:59:19.226Z,15.15
2022-08-25T19:01:46.562Z,17.42
2022-08-25T19:04:15.325Z,14.45
2022-08-25T19:06:43.932Z,14.48
2022-08-25T19:09:11.149Z,16.55
2022-08-25T19:11:38.398Z,18.80
2022-08-25T19:14:12.164Z,13.80
2022-08-25T19:16:42.546Z,17.42
2022-08-25T19:19:13.311Z,17.33
2022-08-25T19:21:43.016Z,18.90
2022-08-25T19:24:12.459Z,22.88
2022-08-25T19:26:39.892Z,15.45
2022-08-25T19:29:16.348Z,22.17
2022-08-25T19:31:45.902Z,19.25
2022-08-25T19:34:18.791Z,16.42
2022-08-25T19:36:47.399Z,22.15
2022-08-25T19:39:15.334Z,20.10
2022-08-25T19:41:43.963Z,16.45
2022-08-25T19:44:14.712Z,17.67
2022-08-25T19:46:44.424Z,21.80
2022-08-25T19:49:15.988Z,14.70
2022-08-25T19:51:50.640Z,19.10
2022-08-25T19:54:22.728Z,18.55
2022-08-25T19:56:54.885Z,11.85
2022-08-25T19:59:25.180Z,18.88
2022-08-25T20:01:52.145Z,30.35
2022-08-25T20:04:19.275Z,14.68
2022-08-25T20:06:48.390Z,18.58
2022-08-25T20:09:36.009Z,21.63
2022-08-25T20:12:04.192Z,19.50
2022-08-25T20:14:35.239Z,17.27
2022-08-25T20:17:03.516Z,15.07
2022-08-25T20:19:41.755Z,23.80
2022-08-25T20:22:11.280Z,17.27
2022-08-25T20:24:51.031Z,23.95
2022-08-25T20:27:26.433Z,18.00
2022-08-25T20:29:56.137Z,15.50
2022-08-25T20:32:24.660Z,23.10
2022-08-25T20:34:58.292Z,17.15
2022-08-25T20:37:26.975Z,17.33
2022-08-25T20:39:54.483Z,19.63
2022-08-25T20:42:21.417Z,15.25
2022-08-25T20:44:48.235Z,17.83
2022-08-25T20:47:15.585Z,21.70
2022-08-25T20:49:43.995Z,16.25
2022-08-25T20:52:12.072Z,20.85
2022-08-25T20:54:40.714Z,17.92
2022-08-25T20:57:08.119Z,16.10
2022-08-25T20:59:35.040Z,22.85
2022-08-25T21:02:02.261Z,21.67
2022-08-25T21:04:31.069Z,13.20
2022-08-25T21:07:00.388Z,17.83
2022-08-25T21:09:28.252Z,21.10
2022-08-25T21:11:57.250Z,16.52
2022-08-25T21:14:25.064Z,19.73
2022-08-25T21:16:54.148Z,15.90
2022-08-25T21:19:26.790Z,15.60
2022-08-25T21:21:59.893Z,21.30
2022-08-25T21:24:28.179Z,18.42
2022-08-25T21:26:56.489Z,18.80
2022-08-25T21:29:25.966Z,21.05
2022-08-25T21:31:56.492Z,13.15
2022-08-25T21:34:23.347Z,20.10
2022-08-25T21:36:50.133Z,23.98
2022-08-25T21:39:17.405Z,20.00
2022-08-25T21:41:45.753Z,23.73
2022-08-25T21:44:13.910Z,27.33
2022-08-25T21:46:41.574Z,19.83
2022-08-25T21:49:20.506Z,20.98
2022-08-25T21:51:47.268Z,17.08
2022-08-25T21:54:18.439Z,17.02
2022-08-25T21:56:58.525Z,17.13
2022-08-25T21:59:28.515Z,18.40
2022-08-25T22:02:02.043Z,19.67
2022-08-25T22:04:29.306Z,17.95
2022-08-25T22:06:58.362Z,18.40
2022-08-25T22:09:28.321Z,21.58
2022-08-25T22:11:55.731Z,15.77
2022-08-25T22:14:24.343Z,20.38
2022-08-25T22:16:54.027Z,22.80
2022-08-25T22:19:21.581Z,16.50
2022-08-25T22:21:50.955Z,23.80
2022-08-25T22:24:18.449Z,20.70
2022-08-25T22:26:47.696Z,17.65
2022-08-25T22:29:25.328Z,20.90
2022-08-25T22:31:59.444Z,19.23
2022-08-25T22:34:32.735Z,16.88
2022-08-25T22:37:01.307Z,19.27
2022-08-25T22:39:28.906Z,21.95
2022-08-25T22:41:55.873Z,17.05
2022-08-25T22:44:23.301Z,21.70
2022-08-25T22:46:50.316Z,22.92
2022-08-25T22:49:17.659Z,17.67
2022-08-25T22:51:44.426Z,19.13
2022-08-25T22:54:15.172Z,19.83
2022-08-25T22:56:42.776Z,24.08
2022-08-25T22:59:12.583Z,18.67
2022-08-25T23:01:40.212Z,23.90
2022-08-25T23:04:07.749Z,20.83
2022-08-25T23:06:35.004Z,23.73
2022-08-25T23:09:04.335Z,26.92
2022-08-25T23:11:31.111Z,15.73
2022-08-25T23:14:00.543Z,22.63
2022-08-25T23:16:28.497Z,18.23
2022-08-25T23:18:55.359Z,25.05
2022-08-25T23:21:40.905Z,18.98
2022-08-25T23:24:10.703Z,16.55
2022-08-25T23:29:18.533Z,24.52
2022-08-25T23:31:47.923Z,18.95
2022-08-25T23:34:16.148Z,19.95
2022-08-25T23:36:43.532Z,25.08
2022-08-25T23:39:11.439Z,19.17
2022-08-25T23:41:38.957Z,17.20
2022-08-25T23:44:06.404Z,25.73
2022-08-25T23:46:36.350Z,21.75
2022-08-25T23:49:05.809Z,20.48
2022-08-25T23:51:37.205Z,16.98
2022-08-25T23:54:09.531Z,21.83
2022-08-25T23:56:44.514Z,16.25
2022-08-25T23:59:13.186Z,21.48
